Time,TemperatureF,DewpointF,PressureIn,WindDirection,WindDirectionDegrees,WindSpeedMPH,WindSpeedGustMPH,Humidity,HourlyPrecipIn,Conditions,Clouds,dailyrainin,SoftwareType,DateUTC
2013-06-17 00:02:00,62.0,39.0,-100.00,NNW,330,0.0,4.0,43,-99.99,,,-99.99,,2013-06-17 06:02:00,
2013-06-17 00:12:00,61.0,39.0,-100.00,NE,50,1.0,2.0,44,-99.99,,,-99.99,,2013-06-17 06:12:00,
2013-06-17 00:22:00,60.0,39.0,-100.00,East,85,3.0,4.0,45,-99.99,,,-99.99,,2013-06-17 06:22:00,
2013-06-17 00:33:00,60.0,40.0,-100.00,SSE,165,4.0,4.0,47,-99.99,,,-99.99,,2013-06-17 06:33:00,
2013-06-17 00:43:00,58.0,39.0,-100.00,SSE,150,6.0,7.0,48,-99.99,,,-99.99,,2013-06-17 06:43:00,
2013-06-17 00:53:00,56.0,39.0,-100.00,WSW,255,4.0,7.0,50,-99.99,,,-99.99,,2013-06-17 06:53:00,
2013-06-17 01:02:00,55.0,39.0,-100.00,East,90,6.0,10.0,55,-99.99,,,-99.99,,2013-06-17 07:02:00,
2013-06-17 01:12:00,54.0,40.0,-100.00,WNW,285,4.0,6.0,57,-99.99,,,-99.99,,2013-06-17 07:12:00,
2013-06-17 01:22:00,55.0,39.0,-100.00,SE,135,9.0,10.0,55,-99.99,,,-99.99,,2013-06-17 07:22:00,
2013-06-17 01:33:00,55.0,39.0,-100.00,South,175,6.0,11.0,54,-99.99,,,-99.99,,2013-06-17 07:33:00,
2013-06-17 01:42:00,53.0,39.0,-100.00,NW,315,2.0,6.0,58,-99.99,,,-99.99,,2013-06-17 07:42:00,
2013-06-17 01:52:00,56.0,39.0,-100.00,SSE,160,14.0,16.0,52,-99.99,,,-99.99,,2013-06-17 07:52:00,
2013-06-17 02:01:00,57.0,39.0,-100.00,South,175,9.0,14.0,50,-99.99,,,-99.99,,2013-06-17 08:01:00,
2013-06-17 02:11:00,57.0,40.0,-100.00,SSE,150,10.0,12.0,52,-99.99,,,-99.99,,2013-06-17 08:11:00,
2013-06-17 02:22:00,56.0,43.0,-100.00,SSE,160,12.0,14.0,60,-99.99,,,-99.99,,2013-06-17 08:22:00,
2013-06-17 02:33:00,55.0,42.0,-100.00,South,175,9.0,12.0,60,-99.99,,,-99.99,,2013-06-17 08:33:00,
2013-06-17 02:43:00,54.0,41.0,-100.00,South,175,10.0,12.0,61,-99.99,,,-99.99,,2013-06-17 08:43:00,
2013-06-17 02:52:00,53.0,41.0,-100.00,SSW,200,8.0,12.0,63,-99.99,,,-99.99,,2013-06-17 08:52:00,
2013-06-17 03:02:00,53.0,43.0,-100.00,SW,215,6.0,10.0,69,-99.99,,,-99.99,,2013-06-17 09:02:00,
2013-06-17 03:11:00,53.0,45.0,-100.00,WSW,250,4.0,6.0,74,-99.99,,,-99.99,,2013-06-17 09:11:00,
2013-06-17 03:22:00,53.0,46.0,-100.00,SSW,205,5.0,7.0,78,-99.99,,,-99.99,,2013-06-17 09:22:00,
2013-06-17 03:34:00,53.0,47.0,-100.00,SW,225,9.0,10.0,80,-99.99,,,-99.99,,2013-06-17 09:34:00,
2013-06-17 03:43:00,52.0,47.0,-100.00,SSW,200,6.0,11.0,81,-99.99,,,-99.99,,2013-06-17 09:43:00,
2013-06-17 03:52:00,52.0,46.0,-100.00,SW,215,5.0,7.0,81,-99.99,,,-99.99,,2013-06-17 09:52:00,
2013-06-17 04:02:00,51.0,46.0,-100.00,SSW,200,8.0,9.0,82,-99.99,,,-99.99,,2013-06-17 10:02:00,
2013-06-17 04:12:00,51.0,46.0,-100.00,SSW,200,4.0,8.0,82,-99.99,,,-99.99,,2013-06-17 10:12:00,
2013-06-17 04:22:00,51.0,46.0,-100.00,SSW,195,5.0,6.0,84,-99.99,,,-99.99,,2013-06-17 10:22:00,
2013-06-17 04:33:00,51.0,46.0,-100.00,South,190,7.0,9.0,84,-99.99,,,-99.99,,2013-06-17 10:33:00,
2013-06-17 04:43:00,51.0,47.0,-100.00,SSE,160,6.0,9.0,84,-99.99,,,-99.99,,2013-06-17 10:43:00,
2013-06-17 04:53:00,52.0,48.0,-100.00,SSE,160,9.0,10.0,84,-99.99,,,-99.99,,2013-06-17 10:53:00,
2013-06-17 05:02:00,52.0,47.0,-100.00,South,170,7.0,11.0,84,-99.99,,,-99.99,,2013-06-17 11:02:00,
2013-06-17 05:12:00,51.0,47.0,-100.00,SSE,165,7.0,8.0,84,-99.99,,,-99.99,,2013-06-17 11:12:00,
2013-06-17 05:23:00,51.0,47.0,-100.00,South,180,6.0,9.0,84,-99.99,,,-99.99,,2013-06-17 11:23:00,
2013-06-17 05:33:00,51.0,46.0,-100.00,South,180,7.0,9.0,84,-99.99,,,-99.99,,2013-06-17 11:33:00,
2013-06-17 05:43:00,50.0,46.0,-100.00,South,170,9.0,10.0,84,-99.99,,,-99.99,,2013-06-17 11:43:00,
2013-06-17 05:53:00,51.0,46.0,-100.00,South,185,6.0,10.0,84,-99.99,,,-99.99,,2013-06-17 11:53:00,
2013-06-17 06:02:00,50.0,45.0,-100.00,South,185,6.0,6.0,84,-99.99,,,-99.99,,2013-06-17 12:02:00,
2013-06-17 06:11:00,50.0,45.0,-100.00,South,170,6.0,6.0,84,-99.99,,,-99.99,,2013-06-17 12:11:00,
2013-06-17 06:22:00,50.0,46.0,-100.00,SSE,150,2.0,6.0,83,-99.99,,,-99.99,,2013-06-17 12:22:00,
2013-06-17 06:33:00,52.0,47.0,-100.00,SSE,160,2.0,6.0,83,-99.99,,,-99.99,,2013-06-17 12:33:00,
2013-06-17 06:43:00,53.0,48.0,-100.00,SE,145,3.0,5.0,82,-99.99,,,-99.99,,2013-06-17 12:43:00,
2013-06-17 06:53:00,54.0,48.0,-100.00,SSW,195,3.0,4.0,80,-99.99,,,-99.99,,2013-06-17 12:53:00,
2013-06-17 07:01:00,55.0,48.0,-100.00,SSW,200,3.0,4.0,78,-99.99,,,-99.99,,2013-06-17 13:01:00,
2013-06-17 07:11:00,55.0,48.0,-100.00,South,180,3.0,4.0,77,-99.99,,,-99.99,,2013-06-17 13:11:00,
2013-06-17 07:22:00,55.0,48.0,-100.00,SW,215,2.0,4.0,76,-99.99,,,-99.99,,2013-06-17 13:22:00,
2013-06-17 07:32:00,56.0,47.0,-100.00,SE,140,4.0,6.0,73,-99.99,,,-99.99,,2013-06-17 13:32:00,
2013-06-17 07:43:00,56.0,47.0,-100.00,South,175,2.0,5.0,71,-99.99,,,-99.99,,2013-06-17 13:43:00,
2013-06-17 07:52:00,57.0,47.0,-100.00,SSW,200,4.0,5.0,70,-99.99,,,-99.99,,2013-06-17 13:52:00,
2013-06-17 08:02:00,57.0,46.0,-100.00,SE,145,8.0,10.0,66,-99.99,,,-99.99,,2013-06-17 14:02:00,
2013-06-17 08:11:00,58.0,46.0,-100.00,South,170,7.0,9.0,64,-99.99,,,-99.99,,2013-06-17 14:11:00,
2013-06-17 08:22:00,59.0,46.0,-100.00,South,170,5.0,10.0,62,-99.99,,,-99.99,,2013-06-17 14:22:00,
2013-06-17 08:34:00,60.0,46.0,-100.00,SW,215,4.0,7.0,60,-99.99,,,-99.99,,2013-06-17 14:34:00,
2013-06-17 08:43:00,61.0,45.0,-100.00,SW,230,4.0,7.0,56,-99.99,,,-99.99,,2013-06-17 14:43:00,
2013-06-17 08:53:00,61.0,44.0,-100.00,WNW,295,5.0,10.0,52,-99.99,,,-99.99,,2013-06-17 14:53:00,
2013-06-17 09:01:00,63.0,44.0,-100.00,SW,220,4.0,9.0,49,-99.99,,,-99.99,,2013-06-17 15:01:00,
2013-06-17 09:12:00,64.0,43.0,-100.00,NW,305,6.0,9.0,47,-99.99,,,-99.99,,2013-06-17 15:12:00,
2013-06-17 09:22:00,64.0,43.0,-100.00,NNW,340,7.0,11.0,46,-99.99,,,-99.99,,2013-06-17 15:22:00,
2013-06-17 09:33:00,66.0,43.0,-100.00,NW,320,6.0,12.0,44,-99.99,,,-99.99,,2013-06-17 15:33:00,
2013-06-17 09:43:00,67.0,44.0,-100.00,NW,305,6.0,12.0,42,-99.99,,,-99.99,,2013-06-17 15:43:00,
2013-06-17 09:52:00,68.0,44.0,-100.00,WNW,300,4.0,7.0,42,-99.99,,,-99.99,,2013-06-17 15:52:00,
2013-06-17 10:02:00,69.0,45.0,-100.00,WNW,300,4.0,8.0,41,-99.99,,,-99.99,,2013-06-17 16:02:00,
2013-06-17 10:11:00,69.0,44.0,-100.00,WNW,290,6.0,11.0,40,-99.99,,,-99.99,,2013-06-17 16:11:00,
2013-06-17 10:22:00,70.0,44.0,-100.00,NW,325,7.0,12.0,38,-99.99,,,-99.99,,2013-06-17 16:22:00,
2013-06-17 10:33:00,70.0,44.0,-100.00,WNW,295,9.0,12.0,38,-99.99,,,-99.99,,2013-06-17 16:33:00,
2013-06-17 10:43:00,71.0,43.0,-100.00,NW,320,9.0,16.0,36,-99.99,,,-99.99,,2013-06-17 16:43:00,
2013-06-17 10:53:00,72.0,43.0,-100.00,NNW,330,12.0,21.0,34,-99.99,,,-99.99,,2013-06-17 16:53:00,
2013-06-17 11:02:00,73.0,42.0,-100.00,North,10,12.0,19.0,33,-99.99,,,-99.99,,2013-06-17 17:02:00,
2013-06-17 11:12:00,74.0,43.0,-100.00,North,5,11.0,16.0,33,-99.99,,,-99.99,,2013-06-17 17:12:00,
2013-06-17 11:22:00,74.0,42.0,-100.00,NW,320,11.0,16.0,32,-99.99,,,-99.99,,2013-06-17 17:22:00,
2013-06-17 11:33:00,74.0,43.0,-100.00,North,0,9.0,18.0,32,-99.99,,,-99.99,,2013-06-17 17:33:00,
2013-06-17 11:43:00,75.0,43.0,-100.00,NNW,345,12.0,16.0,31,-99.99,,,-99.99,,2013-06-17 17:43:00,
2013-06-17 11:52:00,76.0,43.0,-100.00,North,0,7.0,14.0,31,-99.99,,,-99.99,,2013-06-17 17:52:00,
2013-06-17 12:02:00,76.0,42.0,-100.00,North,5,6.0,12.0,29,-99.99,,,-99.99,,2013-06-17 18:02:00,
2013-06-17 12:12:00,76.0,43.0,-100.00,NNW,335,8.0,13.0,30,-99.99,,,-99.99,,2013-06-17 18:12:00,
2013-06-17 12:23:00,77.0,43.0,-100.00,NNW,345,9.0,12.0,29,-99.99,,,-99.99,,2013-06-17 18:23:00,
2013-06-17 12:33:00,77.0,42.0,-100.00,North,10,9.0,14.0,28,-99.99,,,-99.99,,2013-06-17 18:33:00,
2013-06-17 12:43:00,77.0,42.0,-100.00,North,0,7.0,15.0,28,-99.99,,,-99.99,,2013-06-17 18:43:00,
2013-06-17 12:53:00,79.0,44.0,-100.00,North,0,8.0,12.0,28,-99.99,,,-99.99,,2013-06-17 18:53:00,
2013-06-17 13:02:00,78.0,43.0,-100.00,North,0,9.0,16.0,28,-99.99,,,-99.99,,2013-06-17 19:02:00,
2013-06-17 13:22:00,81.0,43.0,-100.00,North,0,7.0,13.0,26,-99.99,,,-99.99,,2013-06-17 19:22:00,
2013-06-17 13:33:00,81.0,40.0,-100.00,NNW,340,4.0,9.0,23,-99.99,,,-99.99,,2013-06-17 19:33:00,
2013-06-17 13:43:00,83.0,42.0,-100.00,NW,305,2.0,6.0,23,-99.99,,,-99.99,,2013-06-17 19:43:00,
2013-06-17 13:53:00,82.0,40.0,-100.00,NNW,330,7.0,14.0,22,-99.99,,,-99.99,,2013-06-17 19:53:00,
2013-06-17 14:02:00,82.0,40.0,-100.00,WNW,295,3.0,12.0,22,-99.99,,,-99.99,,2013-06-17 20:02:00,
2013-06-17 14:11:00,83.0,41.0,-100.00,NNW,335,9.0,14.0,22,-99.99,,,-99.99,,2013-06-17 20:11:00,
2013-06-17 14:22:00,83.0,40.0,-100.00,West,270,4.0,15.0,21,-99.99,,,-99.99,,2013-06-17 20:22:00,
2013-06-17 14:34:00,84.0,40.0,-100.00,NW,325,2.0,10.0,20,-99.99,,,-99.99,,2013-06-17 20:34:00,
2013-06-17 14:43:00,83.0,38.0,-100.00,North,5,3.0,13.0,20,-99.99,,,-99.99,,2013-06-17 20:43:00,
2013-06-17 14:52:00,83.0,39.0,-100.00,West,260,4.0,6.0,20,-99.99,,,-99.99,,2013-06-17 20:52:00,
2013-06-17 15:01:00,83.0,38.0,-100.00,SSW,210,4.0,9.0,19,-99.99,,,-99.99,,2013-06-17 21:01:00,
2013-06-17 15:12:00,86.0,38.0,-100.00,ESE,110,1.0,6.0,18,-99.99,,,-99.99,,2013-06-17 21:12:00,
2013-06-17 15:33:00,86.0,39.0,-100.00,SE,125,1.0,7.0,18,-99.99,,,-99.99,,2013-06-17 21:33:00,
2013-06-17 15:43:00,86.0,39.0,-100.00,NW,315,3.0,7.0,18,-99.99,,,-99.99,,2013-06-17 21:43:00,
2013-06-17 15:52:00,87.0,39.0,-100.00,East,100,1.0,9.0,18,-99.99,,,-99.99,,2013-06-17 21:52:00,
2013-06-17 16:01:00,87.0,38.0,-100.00,South,185,3.0,14.0,17,-99.99,,,-99.99,,2013-06-17 22:01:00,
2013-06-17 16:11:00,85.0,38.0,-100.00,West,270,2.0,5.0,18,-99.99,,,-99.99,,2013-06-17 22:11:00,
2013-06-17 16:22:00,86.0,38.0,-100.00,SW,220,8.0,10.0,18,-99.99,,,-99.99,,2013-06-17 22:22:00,
2013-06-17 16:33:00,87.0,39.0,-100.00,SW,215,4.0,12.0,18,-99.99,,,-99.99,,2013-06-17 22:33:00,
2013-06-17 16:43:00,87.0,39.0,-100.00,SW,225,7.0,11.0,18,-99.99,,,-99.99,,2013-06-17 22:43:00,
2013-06-17 16:53:00,88.0,38.0,-100.00,WNW,285,1.0,13.0,17,-99.99,,,-99.99,,2013-06-17 22:53:00,
2013-06-17 17:02:00,88.0,39.0,-100.00,SSW,195,11.0,14.0,17,-99.99,,,-99.99,,2013-06-17 23:02:00,
2013-06-17 17:11:00,88.0,39.0,-100.00,SSW,195,13.0,17.0,17,-99.99,,,-99.99,,2013-06-17 23:11:00,
2013-06-17 17:22:00,86.0,38.0,-100.00,SSW,210,13.0,16.0,18,-99.99,,,-99.99,,2013-06-17 23:22:00,
2013-06-17 17:32:00,85.0,38.0,-100.00,SSW,210,13.0,16.0,19,-99.99,,,-99.99,,2013-06-17 23:32:00,
2013-06-17 17:42:00,86.0,39.0,-100.00,SSW,200,12.0,14.0,19,-99.99,,,-99.99,,2013-06-17 23:42:00,
2013-06-17 17:52:00,86.0,38.0,-100.00,SW,215,9.0,12.0,18,-99.99,,,-99.99,,2013-06-17 23:52:00,
2013-06-17 18:01:00,85.0,38.0,-100.00,WSW,240,8.0,13.0,19,-99.99,,,-99.99,,2013-06-18 00:01:00,
2013-06-17 18:12:00,84.0,39.0,-100.00,West,265,15.0,24.0,19,-99.99,,,-99.99,,2013-06-18 00:12:00,
2013-06-17 18:22:00,78.0,39.0,-100.00,NNW,330,29.0,39.0,25,-99.99,,,-99.99,,2013-06-18 00:22:00,
2013-06-17 18:32:00,73.0,42.0,-100.00,NW,325,27.0,45.0,32,-99.99,,,-99.99,,2013-06-18 00:32:00,
2013-06-17 18:43:00,73.0,44.0,-100.00,NNW,340,25.0,40.0,35,-99.99,,,-99.99,,2013-06-18 00:43:00,
2013-06-17 18:52:00,72.0,43.0,-100.00,NNW,340,29.0,42.0,36,-99.99,,,-99.99,,2013-06-18 00:52:00,
2013-06-17 19:01:00,72.0,44.0,-100.00,North,0,26.0,40.0,36,-99.99,,,-99.99,,2013-06-18 01:01:00,
2013-06-17 19:11:00,71.0,44.0,-100.00,North,0,25.0,40.0,36,-99.99,,,-99.99,,2013-06-18 01:11:00,
2013-06-17 19:23:00,71.0,43.0,-100.00,North,0,29.0,39.0,36,-99.99,,,-99.99,,2013-06-18 01:23:00,
2013-06-17 19:34:00,71.0,44.0,-100.00,North,0,28.0,37.0,37,-99.99,,,-99.99,,2013-06-18 01:34:00,
2013-06-17 19:44:00,71.0,44.0,-100.00,North,5,25.0,34.0,38,-99.99,,,-99.99,,2013-06-18 01:44:00,
2013-06-17 19:53:00,70.0,45.0,-100.00,North,0,27.0,39.0,40,-99.99,,,-99.99,,2013-06-18 01:53:00,
2013-06-17 20:02:00,70.0,45.0,-100.00,North,10,19.0,34.0,41,-99.99,,,-99.99,,2013-06-18 02:02:00,
2013-06-17 20:11:00,70.0,46.0,-100.00,NNE,15,22.0,34.0,42,-99.99,,,-99.99,,2013-06-18 02:11:00,
2013-06-17 20:22:00,70.0,46.0,-100.00,NNE,15,22.0,34.0,42,-99.99,,,-99.99,,2013-06-18 02:22:00,
2013-06-17 20:34:00,69.0,46.0,-100.00,NNE,15,22.0,27.0,43,-99.99,,,-99.99,,2013-06-18 02:34:00,
2013-06-17 20:43:00,69.0,46.0,-100.00,NNE,25,17.0,24.0,43,-99.99,,,-99.99,,2013-06-18 02:43:00,
2013-06-17 20:53:00,68.0,46.0,-100.00,NNE,25,16.0,23.0,45,-99.99,,,-99.99,,2013-06-18 02:53:00,
2013-06-17 21:02:00,68.0,46.0,-100.00,NNE,15,16.0,25.0,45,-99.99,,,-99.99,,2013-06-18 03:02:00,
2013-06-17 21:12:00,67.0,46.0,-100.00,NE,40,14.0,26.0,46,-99.99,,,-99.99,,2013-06-18 03:12:00,
2013-06-17 21:23:00,67.0,47.0,-100.00,NNE,15,15.0,26.0,48,-99.99,,,-99.99,,2013-06-18 03:23:00,
2013-06-17 21:34:00,67.0,48.0,-100.00,NNE,25,16.0,24.0,50,-99.99,,,-99.99,,2013-06-18 03:34:00,
2013-06-17 21:42:00,66.0,47.0,-100.00,NNE,30,17.0,24.0,50,-99.99,,,-99.99,,2013-06-18 03:42:00,
2013-06-17 21:53:00,66.0,46.0,-100.00,North,10,16.0,27.0,49,-99.99,,,-99.99,,2013-06-18 03:53:00,
2013-06-17 22:01:00,65.0,46.0,-100.00,NNE,25,16.0,29.0,49,-99.99,,,-99.99,,2013-06-18 04:01:00,
2013-06-17 22:12:00,64.0,43.0,-100.00,NNE,25,19.0,29.0,46,-99.99,,,-99.99,,2013-06-18 04:12:00,
2013-06-17 22:22:00,64.0,43.0,-100.00,NE,35,14.0,26.0,46,-99.99,,,-99.99,,2013-06-18 04:22:00,
2013-06-17 22:34:00,64.0,43.0,-100.00,NE,35,16.0,23.0,46,-99.99,,,-99.99,,2013-06-18 04:34:00,
2013-06-17 22:43:00,63.0,43.0,-100.00,NNE,25,12.0,22.0,46,-99.99,,,-99.99,,2013-06-18 04:43:00,
2013-06-17 22:53:00,63.0,43.0,-100.00,NNE,20,12.0,19.0,47,-99.99,,,-99.99,,2013-06-18 04:53:00,
2013-06-17 23:02:00,63.0,43.0,-100.00,NNE,30,13.0,20.0,48,-99.99,,,-99.99,,2013-06-18 05:02:00,
2013-06-17 23:12:00,63.0,43.0,-100.00,NE,45,13.0,20.0,48,-99.99,,,-99.99,,2013-06-18 05:12:00,
2013-06-17 23:22:00,63.0,43.0,-100.00,NNE,30,13.0,19.0,48,-99.99,,,-99.99,,2013-06-18 05:22:00,
2013-06-17 23:33:00,62.0,43.0,-100.00,NNE,25,12.0,20.0,48,-99.99,,,-99.99,,2013-06-18 05:33:00,
2013-06-17 23:43:00,62.0,43.0,-100.00,NNE,25,11.0,19.0,49,-99.99,,,-99.99,,2013-06-18 05:43:00,
2013-06-17 23:53:00,62.0,43.0,-100.00,NNE,25,11.0,17.0,49,-99.99,,,-99.99,,2013-06-18 05:53:00,